Panther Creek, Illinois
Current Conditions -  °F | °C
As of 4:15 PM on Sunday 25 Jan 2015 (Local Time) from KIJX Reporting Station
Light Rain Light Rain  
Wind Chill: 24°   Ceiling: 700
Heat Index: 35°   Visibility: 10mi
Dew Point: 32°   Wind: 21mph
Humidity: 89%   Direction: 350°N
Pressure: 29.8"   Gusts: 25mph
Location:  40.0289°N, 90.1364°W
Report Text: KIJX 252215Z AUTO 35018G22KT 10SM -RA OVC007 02/00 A2980 RMK AO2 T00180001
Loading
Personal Weather Stations






























Interactive Weather Map New forecast layout! Learn more

10-Day Weather Forecast

Advertisements
Track Severe Weather on mobile